デリー の空港の天気 - METARとTAF

インディラ・ガンディー国際空港 ( VIDP / DEL ) - インド デリー
飛行場実況気象(Metar)
観測時間10/23 11:00 IST (10/23 05:30 UTC)
風向・風速西 3m/s
視程2000m
天気現象
なし
気温27℃
湿度48%
気圧1012hPa
METARVIDP 230530Z 27005KT 2000 FU NSC 27/15 Q1012 NOSIG
過去の天気等 Google飛行場航空写真 Wunderground天気予報

過去48時間のMETAR

飛行場予報(TAF)
発表時間: 10/23 10:30 IST (10/23 05:00 UTC)
予報対象時間: 23日11時 IST ~ 24日17時 IST
風向・風速西南西 3m/s
視程1800m
天気現象煙霧
なし
23日13時 IST ~ 23日14時 IST に徐々に
風向・風速西南西 4m/s
視程3000m
天気現象煙霧
全天の4割程度の雲 雲底高度 1070m
23日14時 IST ~ 23日18時 IST に徐々に
少しの積乱雲 雲底高度 1220m
23日18時 IST ~ 23日20時 IST に徐々に
風向・風速不定 1m/s
視程2500m
天気現象煙霧
23日23時 IST ~ 24日1時 IST に徐々に
風向・風速静穏
視程2000m
天気現象もや
24日5時 IST ~ 24日7時 IST に徐々に
風向・風速不定 1m/s
視程1000m
天気現象もや
少しの雲 雲底高度 1220m
24日10時 IST ~ 24日12時 IST に徐々に
風向・風速南南東 3m/s
視程2000m
天気現象煙霧
24日13時 IST ~ 24日14時 IST に徐々に
風向・風速南南東 4m/s
視程3000m
天気現象煙霧
全天の4割程度の雲 雲底高度 1070m
24日14時 IST ~ 24日17時 IST に徐々に
少しの積乱雲 雲底高度 1220m
TAF VIDP 230500Z 2306/2412 25006KT 1800 HZ NSC
BECMG 2308/2309 25008KT 3000 HZ SCT035
BECMG 2309/2313 FEW040CB
BECMG 2313/2315 VRB02KT 2500 HZ
BECMG 2318/2320 00000KT 2000 BR
BECMG 2400/2402 VRB02KT 1000 BR FEW040
BECMG 2405/2407 15006KT 2000 HZ
BECMG 2408/2409 15008KT 3000 HZ SCT035
BECMG 2409/2412 FEW040CB